What's new
  • ยินดีต้อนรับทุกท่านเข้าสู่ไทยซีร้อยสามสิบครับ, หากท่านพบปัญหาการใช้งานเว็บไซต์ของเรา
    หรือต้องการเสนอแนะประการใดสามารถโพสแจ้งได้ที่ ฟอรั่ม: Contact us/help info ,ขอบคุณครับ.
    แจ้งข่าวสารการอับเดทฟอรั่ม Thaic-130


    Live support: SKYPIG / Lt.Col.Tirapong Kongsomrit, e-mail: kongsomrit@yahoo.com
    กรุณาปิด โปรแกรมบล๊อกโฆษณา เพราะเราอยู่ได้ด้วยโฆษณาที่ท่านเห็น
    Please close the adblock program. Because we can live with the ads you see

DEC 2012

skypig

Administrator
DEC 2012 ขอโทษที โพสช้าไปหน่อย เพราะบินบ่อยมาก ๆๆๆ
 

Attachments

skypig

Administrator
ครึ่งเดือนหลัง แล้วไปฉลองปีใหม่ ที่ CNX
 

Attachments

skypig

Administrator
นักบินขาดแคลน ที่มีอยู่บินกันเดือนละ 100 ชม.
สังเกตุ Duty Time เกินวันละ 8 ชม.
ยาวนานกว่าคนทำงานออฟฟิส เสียอีก
 

wis_tom

Super Moderator
เมื่อคืนบิน IVAO อยู่ เครื่องแฮงค์เฉย ทำให้ไม่อยากบินต่อ นึกสนุกเอ๊ะ..ครูหมูบินไป CNX นี่ เลยได้ภาพตามไปดูครูหมูบิน 2 เที่ยวบิน ดอนเมือง-เชียงใหม่ และ เชียงใหม่-ดอนเมือง (สังเกตว่าพอ Maintain แป๊บเดียวก็ลดระดับแล้วครับ)
ขอขอบคุณเวปไซต์
Please, Log in or Register to view URLs content!


ผิดพลาดประการใดขออภัยด้วยครับ

DMK-CNX FD 3427
 

Attachments

Last edited:

wis_tom

Super Moderator
ที่งงนิดนึงครับเที่ยวบินนี่จาก DMK-CNX แต่ในชื่อเที่ยวบินมันสลับกันซะงั้น
Flight:FD3427
From:Chaing Mai ,Chaing Mai (CNX)
To:Bangkok , Suvarnabhumi (BKK)
 

Attachments

skypig

Administrator
โพสข้างบนเก็บไว้ก่อน

12/12/12 จะไป Denpasa WADD โลกจะหยุดไหมเนี่ย

WADD 110500Z 17005KT 9999 FEW016 FEW019CB 32/25 Q1007 NOSIG

TAF

WADD 110500Z 1106/1206 VRB05KT 9999 SCT017
BECMG 1106/1108 26010KT
TEMPO 1114/1119 7000 -TSRA FEW016CB BKN016


WSSS 110500Z 05004KT 010V110 9999 FEW016TCU SCT050 BKN270 29/25 Q1010 NOSIG

TAF WSSS 110500Z 1106/1212 01006KT 9999 FEW018CB SCT020
TEMPO 1106/1109 3000 TSRA FEW012CB BKN015
 


Flag Counter

กรุณาปิด โปรแกรมบล๊อกโฆษณา เพราะเราอยู่ได้ด้วยโฆษณาที่ท่านเห็น
Please close the adblock program. Because we can live with the ads you see
Top